Details From KSMF - Sacramento Intl
To KVCB - Nut Tree
Flight Number -
Tags Routegen Generated
Created
Modified
Stats Distance 33 nm / 61 km
Max Altitude 5,000 ft / 1,524 m
Waypoints 5
Social Downloads 1
Likes 0
Share VATSIM

Download

Looking for another format? Having issues loading an existing format? Contact us
Advertisement - Login to hide

Notes

Departing runway 0 KSMF. Arriving runway 3 KVCB. Advanced Generation Settings: Turn accuracy: 20 Altitude: 5000ft Smoothed angles: True Runway changes allowed: True Calculation order: Arrival --> Departure --> Intermediates Multipass intermediates: True

Route

KSMF +38.76_-121.58 +38.60_-121.74 +38.44_-121.91 KVCB

ID Type Via Altitude Latitude Longitude Leg Dist Tot Dist Heading (true) Name
O KSMF APT - 5,000 ft / 1,524 m 38.68351˚ -121.58046˚ - 0 nm - -
+38.76_-121.58 LATLON - 5,000 ft / 1,524 m 38.75587˚ -121.57923˚ 4 nm 4 nm 1° / 1° -
+38.60_-121.74 LATLON - 5,000 ft / 1,524 m 38.59965˚ -121.74260˚ 12 nm 16 nm 219° / 219° -
+38.44_-121.91 LATLON - 880 ft / 268 m 38.44344˚ -121.90596˚ 12 nm 28 nm 219° / 219° -
O KVCB APT - 0 ft / 0 m 38.38314˚ -121.95704˚ 4 nm 32 nm 214° / 214° NUT TREE

Altitude Profile

Advertisement - Login to hide

KSMF

Details ICAO KSMF (SMF)
Name Sacramento Intl
Region United States
Timezone America/Los_Angeles (UTC-8.0)
Stats Elevation 27 ft / 8 m (AMSL)
Location 38.695431° -121.590769°
Runways 2
Magnetic Variation 13.572° E

METAR

KSMF 170053Z 33018G29KT 10SM FEW250 14/M06 A2993 RMK AO2 PK WND 33031/2359 SLP133 T01391061

Decode

TAF

TAF KSMF 162320Z 1700/1724 34025G35KT P6SM SKC FM170200 33015G25KT P6SM SKC FM171200 33012KT P6SM SKC

Decode

Departure Runways

ID Width Length Bearing (true) Bearing (mag) Surface Threshold Offset Overrun Length
16L 151 ft / 46 m 8,618 ft / 2,627 m 180.73° 167.16° Concrete 499 ft / 152 m 256 ft / 78 m
16R 151 ft / 46 m 8,614 ft / 2,626 m 180.75° 167.18° Asphalt 499 ft / 152 m 171 ft / 52 m
34L 151 ft / 46 m 8,614 ft / 2,626 m 0.75° 347.18° Asphalt 499 ft / 152 m 157 ft / 48 m
34R 151 ft / 46 m 8,618 ft / 2,627 m 0.73° 347.16° Concrete 499 ft / 152 m 262 ft / 80 m

KVCB

Details ICAO KVCB
Name NUT TREE
Region United States
Timezone America/Los_Angeles (UTC-8.0)
Stats Elevation 117 ft / 36 m (AMSL)
Location 38.377778° -121.961577°
Runways 1
Magnetic Variation 13.564° E

METAR

KVCB 170053Z AUTO 35019G25KT 10SM CLR 15/M09 A2996 RMK AO2 PK WND 35026/0043 SLP145 T01501094

Decode

TAF

Not found

Destination Runways

ID Width Length Bearing (true) Bearing (mag) Surface Threshold Offset Overrun Length
02 75 ft / 23 m 4,700 ft / 1,433 m 33.55° 19.99° Asphalt 0 ft / 0 m 350 ft / 107 m
20 75 ft / 23 m 4,700 ft / 1,433 m 213.56° 200.00° Asphalt 0 ft / 0 m 0 ft / 0 m